Time;durP1;ratioP1;P1;durP2;ratioP2;P2;SDS_P1;SDS_P2;PMS_P1;PMS_P2;Temp;Humidity;BMP_temperature;BMP_pressure;BME280_temperature;BME280_humidity;BME280_pressure;Samples;Min_cycle;Max_cycle;Signal;HPM_P1;HPM_P2
2023/05/26 00:02:01;;;;;;;13.63;6.45;;;10.20;99.90;;;;;;4964372;28;20051;-67
2023/05/26 00:04:28;;;;;;;12.82;7.47;;;10.20;99.90;;;;;;4963454;28;20422;-65
2023/05/26 00:06:55;;;;;;;15.30;7.78;;;10.20;99.90;;;;;;4966568;28;20580;-62
2023/05/26 00:09:23;;;;;;;8.93;6.68;;;10.30;99.90;;;;;;4964899;28;20059;-67
2023/05/26 00:11:51;;;;;;;9.68;6.20;;;10.30;99.90;;;;;;4965381;28;20482;-61
2023/05/26 00:14:18;;;;;;;8.95;8.10;;;10.30;99.90;;;;;;4966066;28;20051;-62
2023/05/26 00:16:45;;;;;;;20.10;9.23;;;10.30;99.90;;;;;;4966294;28;20558;-67
2023/05/26 00:19:12;;;;;;;12.18;9.38;;;10.30;99.90;;;;;;4964915;28;20050;-62
2023/05/26 00:21:40;;;;;;;10.98;8.55;;;10.30;99.90;;;;;;4964397;28;20058;-64
2023/05/26 00:24:07;;;;;;;11.50;8.98;;;10.30;99.90;;;;;;4963784;28;20058;-68
2023/05/26 00:26:34;;;;;;;16.15;8.43;;;10.30;99.90;;;;;;4966107;28;20042;-61
2023/05/26 00:29:01;;;;;;;14.77;8.23;;;10.30;99.90;;;;;;4965154;28;20055;-63
2023/05/26 00:31:29;;;;;;;13.32;8.48;;;10.30;99.90;;;;;;4964000;28;20090;-70
2023/05/26 00:33:56;;;;;;;10.02;8.38;;;10.30;99.90;;;;;;4978926;28;20090;-74
2023/05/26 00:36:23;;;;;;;10.88;7.30;;;10.30;99.90;;;;;;4964757;28;20065;-63
2023/05/26 00:38:50;;;;;;;11.93;8.25;;;10.30;99.90;;;;;;4966257;28;20062;-63
2023/05/26 00:41:17;;;;;;;10.15;8.07;;;10.30;99.90;;;;;;4962205;28;20043;-65
2023/05/26 00:43:44;;;;;;;20.52;8.30;;;10.30;99.90;;;;;;4968098;28;20117;-70
2023/05/26 00:46:11;;;;;;;12.57;8.70;;;10.30;99.90;;;;;;4963685;28;20556;-63
2023/05/26 00:48:38;;;;;;;13.15;10.10;;;10.30;99.90;;;;;;4967117;28;20059;-64
2023/05/26 00:51:06;;;;;;;19.08;9.77;;;10.30;99.90;;;;;;4963623;28;20126;-73
2023/05/26 00:53:35;;;;;;;14.18;10.27;;;10.30;99.90;;;;;;4962665;28;20059;-63
2023/05/26 00:56:03;;;;;;;15.32;9.82;;;10.30;99.90;;;;;;4963527;28;20058;-63
2023/05/26 00:58:30;;;;;;;14.50;10.10;;;10.30;99.90;;;;;;4965801;28;20854;-66
2023/05/26 01:00:57;;;;;;;9.65;8.27;;;10.30;99.90;;;;;;4964095;28;20105;-71
2023/05/26 01:03:26;;;;;;;13.70;9.18;;;10.30;99.90;;;;;;4965926;28;20142;-72
2023/05/26 01:05:55;;;;;;;16.17;10.05;;;10.30;99.90;;;;;;4961797;28;20404;-69
2023/05/26 01:08:22;;;;;;;10.18;8.55;;;10.30;99.90;;;;;;4964335;28;20489;-69
2023/05/26 01:10:52;;;;;;;7.57;6.65;;;10.30;99.90;;;;;;4964767;28;20105;-62
2023/05/26 01:13:23;;;;;;;8.88;7.97;;;10.30;99.90;;;;;;4981081;28;20105;-64
2023/05/26 01:16:07;;;;;;;10.80;6.82;;;10.30;99.90;;;;;;4960711;28;20249;-65
2023/05/26 01:18:45;;;;;;;8.38;6.47;;;10.20;99.90;;;;;;4964548;28;20078;-68
2023/05/26 01:21:12;;;;;;;9.48;7.13;;;10.20;99.90;;;;;;4962841;28;20073;-65
2023/05/26 01:23:52;;;;;;;9.95;6.88;;;10.20;99.90;;;;;;4964605;28;20065;-62
2023/05/26 01:26:25;;;;;;;11.20;5.47;;;10.10;99.90;;;;;;4977245;28;20058;-62
2023/05/26 01:28:57;;;;;;;9.18;5.13;;;10.00;99.90;;;;;;4962599;28;20094;-73
2023/05/26 01:31:24;;;;;;;8.95;5.10;;;10.00;99.90;;;;;;4961914;28;20055;-68
2023/05/26 01:33:51;;;;;;;7.15;4.82;;;10.00;99.90;;;;;;4963447;28;20054;-62
2023/05/26 01:36:18;;;;;;;6.30;5.43;;;9.90;99.90;;;;;;4960745;28;20113;-66
2023/05/26 01:38:45;;;;;;;6.82;4.28;;;9.90;99.90;;;;;;4964302;28;20070;-73
2023/05/26 01:41:33;;;;;;;11.35;4.07;;;9.90;99.90;;;;;;4963866;28;20053;-63
2023/05/26 01:44:20;;;;;;;4.28;3.88;;;9.90;99.90;;;;;;4959061;28;20063;-68
2023/05/26 01:46:51;;;;;;;7.40;4.38;;;9.80;99.90;;;;;;4962656;28;20063;-67
2023/05/26 01:49:21;;;;;;;8.32;4.10;;;9.80;99.90;;;;;;4962568;28;20453;-63
2023/05/26 01:51:55;;;;;;;7.32;4.28;;;9.70;99.90;;;;;;4960331;28;20047;-68
2023/05/26 01:54:25;;;;;;;5.78;3.78;;;9.60;99.90;;;;;;4973014;28;20106;-71
2023/05/26 01:56:53;;;;;;;7.57;4.47;;;9.60;99.90;;;;;;4961820;28;20051;-68
2023/05/26 01:59:21;;;;;;;7.70;3.40;;;9.60;99.90;;;;;;4960446;28;20055;-66
2023/05/26 02:01:48;;;;;;;6.50;3.92;;;9.50;99.90;;;;;;4963143;28;20046;-69
2023/05/26 02:04:15;;;;;;;8.13;3.72;;;9.50;99.90;;;;;;4962390;28;20709;-67
2023/05/26 02:06:42;;;;;;;5.75;3.75;;;9.40;99.90;;;;;;4965882;28;20062;-70
2023/05/26 02:09:09;;;;;;;5.18;3.38;;;9.40;99.90;;;;;;4963697;28;20109;-65
2023/05/26 02:11:36;;;;;;;4.88;2.78;;;9.40;99.90;;;;;;4977883;28;20059;-68
2023/05/26 02:14:03;;;;;;;5.65;3.58;;;9.30;99.90;;;;;;4962792;28;20109;-66
2023/05/26 02:16:30;;;;;;;5.65;3.08;;;9.30;99.90;;;;;;4963400;28;20534;-66
2023/05/26 02:18:57;;;;;;;9.95;3.05;;;9.30;99.90;;;;;;4964498;28;20496;-68
2023/05/26 02:21:24;;;;;;;9.75;3.08;;;9.30;99.90;;;;;;4974735;28;20098;-69
2023/05/26 02:23:51;;;;;;;6.80;3.20;;;9.20;99.90;;;;;;4960344;28;20059;-70
2023/05/26 02:26:18;;;;;;;4.55;2.80;;;9.20;99.90;;;;;;4963098;28;20137;-72
2023/05/26 02:28:45;;;;;;;5.18;3.10;;;9.10;99.90;;;;;;4963339;28;20081;-70
2023/05/26 02:31:12;;;;;;;10.45;3.00;;;9.10;99.90;;;;;;4962772;28;20109;-64
2023/05/26 02:33:41;;;;;;;8.27;4.10;;;9.10;99.90;;;;;;4963094;28;20047;-62
2023/05/26 02:36:11;;;;;;;5.93;2.80;;;9.20;99.90;;;;;;4972198;28;20087;-66
2023/05/26 02:38:38;;;;;;;10.55;3.38;;;9.20;99.90;;;;;;4964586;28;20070;-72
2023/05/26 02:41:04;;;;;;;6.13;2.63;;;9.20;99.90;;;;;;4960073;28;20807;-62
2023/05/26 02:43:31;;;;;;;11.23;3.28;;;9.40;99.90;;;;;;4963266;28;20055;-70
2023/05/26 02:45:59;;;;;;;7.03;3.72;;;9.40;99.90;;;;;;4959823;28;20059;-66
2023/05/26 02:48:26;;;;;;;9.15;3.35;;;9.50;99.90;;;;;;4963860;28;20517;-67
2023/05/26 02:50:55;;;;;;;10.00;3.35;;;9.60;99.90;;;;;;4961454;28;20133;-63
2023/05/26 02:53:22;;;;;;;6.45;2.67;;;9.70;99.90;;;;;;4956569;28;20055;-67
2023/05/26 02:55:49;;;;;;;14.73;3.13;;;9.80;99.90;;;;;;4960651;28;20434;-67
2023/05/26 02:58:16;;;;;;;7.57;3.90;;;9.90;99.90;;;;;;4965312;28;20086;-64
2023/05/26 03:00:42;;;;;;;8.27;3.85;;;10.00;99.90;;;;;;4962594;28;20117;-74
2023/05/26 03:03:10;;;;;;;12.82;3.65;;;10.00;99.90;;;;;;4969279;28;20512;-64
2023/05/26 03:05:38;;;;;;;13.10;2.80;;;10.10;99.90;;;;;;4976809;28;20141;-62
2023/05/26 03:08:04;;;;;;;11.27;3.05;;;10.20;99.90;;;;;;4971038;28;20090;-67
2023/05/26 03:10:35;;;;;;;17.63;4.18;;;10.30;99.90;;;;;;4979415;28;20049;-65
2023/05/26 03:13:02;;;;;;;10.60;3.22;;;10.40;99.90;;;;;;4978115;28;20121;-72
2023/05/26 03:15:35;;;;;;;9.45;2.95;;;10.40;99.90;;;;;;4977291;28;20063;-62
2023/05/26 03:18:06;;;;;;;7.40;3.63;;;10.40;99.90;;;;;;4977271;28;20059;-71
2023/05/26 03:20:33;;;;;;;11.95;4.63;;;10.40;99.90;;;;;;4960088;28;20058;-64
2023/05/26 03:23:00;;;;;;;9.98;4.13;;;10.40;99.90;;;;;;4965162;28;20051;-64
2023/05/26 03:25:27;;;;;;;13.18;3.30;;;10.40;99.90;;;;;;4964110;28;20061;-64
2023/05/26 03:27:55;;;;;;;12.82;4.05;;;10.50;99.90;;;;;;4963350;28;20408;-72
2023/05/26 03:30:22;;;;;;;16.77;3.55;;;10.50;99.90;;;;;;4965879;28;20082;-72
2023/05/26 03:32:50;;;;;;;10.50;2.97;;;10.50;99.90;;;;;;4966218;28;20062;-65
2023/05/26 03:35:17;;;;;;;17.13;4.13;;;10.50;99.90;;;;;;4964543;28;20047;-65
2023/05/26 03:37:44;;;;;;;8.63;3.95;;;10.50;99.90;;;;;;4963143;28;20057;-63
2023/05/26 03:40:12;;;;;;;10.43;3.92;;;10.60;99.90;;;;;;4964300;28;20054;-63
2023/05/26 03:42:39;;;;;;;9.85;3.85;;;10.60;99.90;;;;;;4964598;28;20151;-62
2023/05/26 03:45:06;;;;;;;13.40;3.40;;;10.60;99.90;;;;;;4968201;28;20231;-67
2023/05/26 03:47:33;;;;;;;13.90;4.28;;;10.60;99.90;;;;;;4981030;28;20043;-65
2023/05/26 03:50:00;;;;;;;12.20;3.55;;;10.70;99.90;;;;;;4962572;28;20051;-65
2023/05/26 03:52:31;;;;;;;16.95;4.10;;;10.70;99.90;;;;;;4954844;28;20082;-62
2023/05/26 03:54:58;;;;;;;17.50;4.80;;;10.70;99.90;;;;;;4964008;28;20066;-63
2023/05/26 03:57:25;;;;;;;9.95;3.42;;;10.70;99.90;;;;;;4963011;28;20066;-65
2023/05/26 03:59:53;;;;;;;13.00;3.85;;;10.70;99.90;;;;;;4984932;28;20497;-68
2023/05/26 04:02:19;;;;;;;15.38;4.00;;;10.70;99.90;;;;;;4980956;28;20537;-64
2023/05/26 04:04:47;;;;;;;17.42;4.78;;;10.70;99.90;;;;;;4967925;28;20058;-72
2023/05/26 04:07:14;;;;;;;13.52;4.90;;;10.70;99.90;;;;;;4966271;28;20501;-67
2023/05/26 04:09:41;;;;;;;11.90;3.60;;;10.80;99.90;;;;;;4964130;28;20557;-69
2023/05/26 04:12:08;;;;;;;10.10;2.85;;;10.80;99.90;;;;;;4978366;28;20094;-63
2023/05/26 04:14:35;;;;;;;9.98;3.38;;;10.90;99.90;;;;;;4963677;28;20054;-69
2023/05/26 04:17:02;;;;;;;14.90;3.90;;;10.90;99.90;;;;;;4964865;28;20081;-65
2023/05/26 04:19:29;;;;;;;11.20;3.60;;;10.90;99.90;;;;;;4964187;28;20152;-68
2023/05/26 04:21:57;;;;;;;9.35;3.08;;;10.90;99.90;;;;;;4966040;28;20476;-68
2023/05/26 04:24:26;;;;;;;7.75;3.72;;;10.90;99.90;;;;;;4963855;28;20058;-64
2023/05/26 04:26:54;;;;;;;11.80;3.58;;;10.90;99.90;;;;;;4964012;28;20059;-68
2023/05/26 04:29:20;;;;;;;8.82;3.80;;;10.90;99.90;;;;;;4964865;28;20062;-64
2023/05/26 04:32:00;;;;;;;9.10;3.83;;;10.90;99.90;;;;;;4965936;28;20279;-70
2023/05/26 04:34:40;;;;;;;17.00;4.87;;;10.90;99.90;;;;;;4967700;28;20095;-66
2023/05/26 04:37:15;;;;;;;10.05;5.10;;;11.00;99.90;;;;;;4963790;28;20288;-68
2023/05/26 04:39:42;;;;;;;14.77;4.65;;;11.00;99.90;;;;;;4979620;28;20058;-64
2023/05/26 04:42:09;;;;;;;21.45;5.07;;;11.00;99.90;;;;;;4963077;28;20047;-67
2023/05/26 04:44:40;;;;;;;23.40;6.72;;;11.00;99.90;;;;;;4973628;28;20065;-73
2023/05/26 04:47:08;;;;;;;8.65;4.53;;;10.90;99.90;;;;;;4965608;28;20403;-66
2023/05/26 04:49:36;;;;;;;10.25;3.47;;;11.00;99.90;;;;;;4976819;28;20062;-65
2023/05/26 04:52:04;;;;;;;8.75;4.78;;;11.00;99.90;;;;;;4963861;28;20579;-67
2023/05/26 04:54:34;;;;;;;11.30;4.03;;;11.00;99.90;;;;;;4962883;28;20148;-65
2023/05/26 04:57:01;;;;;;;8.00;3.28;;;11.00;99.90;;;;;;4963940;28;20038;-64
2023/05/26 04:59:49;;;;;;;12.80;4.53;;;11.00;99.90;;;;;;4977788;28;20055;-63
2023/05/26 05:02:17;;;;;;;9.20;3.38;;;11.00;99.90;;;;;;4973834;28;20058;-69
2023/05/26 05:04:54;;;;;;;11.48;4.38;;;11.00;99.90;;;;;;4963992;28;20067;-64
2023/05/26 05:07:21;;;;;;;11.57;3.67;;;11.00;99.90;;;;;;4964562;28;20086;-72
2023/05/26 05:09:48;;;;;;;10.05;3.10;;;11.10;99.90;;;;;;4961273;28;20138;-70
2023/05/26 05:12:15;;;;;;;9.60;3.70;;;11.10;99.90;;;;;;4954924;28;20051;-63
2023/05/26 05:14:42;;;;;;;11.20;3.45;;;11.10;99.90;;;;;;4962819;28;20157;-65
2023/05/26 05:17:09;;;;;;;14.43;3.95;;;11.10;99.90;;;;;;4979086;28;20108;-67
2023/05/26 05:19:36;;;;;;;11.85;3.28;;;11.10;99.90;;;;;;4962669;28;20489;-66
2023/05/26 05:22:03;;;;;;;8.55;3.78;;;11.10;99.90;;;;;;4943351;28;20153;-64
2023/05/26 05:24:31;;;;;;;13.77;3.97;;;11.20;99.90;;;;;;4962413;28;20055;-68
2023/05/26 05:27:00;;;;;;;10.13;3.08;;;11.10;99.90;;;;;;4949759;28;20447;-64
2023/05/26 05:29:27;;;;;;;15.32;3.90;;;11.10;99.90;;;;;;4971642;28;20055;-66
2023/05/26 05:31:57;;;;;;;11.15;4.25;;;11.20;99.90;;;;;;4962271;28;20052;-65
2023/05/26 05:34:25;;;;;;;8.15;3.55;;;11.20;99.90;;;;;;4962142;28;20058;-70
2023/05/26 05:36:52;;;;;;;10.70;4.05;;;11.20;99.90;;;;;;4978459;28;20082;-65
2023/05/26 05:39:19;;;;;;;15.07;3.47;;;11.20;99.90;;;;;;4963272;28;20058;-67
2023/05/26 05:41:46;;;;;;;14.10;3.47;;;11.20;99.90;;;;;;4961924;28;20116;-66
2023/05/26 05:44:13;;;;;;;13.55;3.92;;;11.20;99.90;;;;;;4962750;28;20054;-67
2023/05/26 05:46:40;;;;;;;10.32;3.30;;;11.20;99.90;;;;;;4964831;28;20062;-74
2023/05/26 05:49:19;;;;;;;13.00;4.03;;;11.20;99.90;;;;;;4961893;28;20116;-65
2023/05/26 05:51:48;;;;;;;9.98;3.78;;;11.20;99.90;;;;;;4962429;28;20502;-75
2023/05/26 05:54:16;;;;;;;17.17;3.78;;;11.20;99.90;;;;;;4961477;28;20051;-67
2023/05/26 05:56:44;;;;;;;13.40;4.72;;;11.20;99.90;;;;;;4977118;28;20082;-64
2023/05/26 05:59:13;;;;;;;7.18;3.33;;;11.20;99.90;;;;;;4977193;28;20086;-68
2023/05/26 06:01:40;;;;;;;18.17;2.92;;;11.20;99.90;;;;;;4962418;28;20465;-63
2023/05/26 06:04:07;;;;;;;10.88;2.67;;;11.30;99.90;;;;;;4961453;28;20046;-72
2023/05/26 06:06:36;;;;;;;6.95;3.00;;;11.30;99.90;;;;;;4976865;28;20051;-68
2023/05/26 06:09:03;;;;;;;11.52;3.42;;;11.30;99.90;;;;;;4957948;28;20117;-76
2023/05/26 06:11:31;;;;;;;5.20;2.60;;;11.30;99.90;;;;;;4960868;28;20163;-65
2023/05/26 06:13:59;;;;;;;12.13;2.50;;;11.30;99.90;;;;;;4961056;28;20054;-66
2023/05/26 06:16:26;;;;;;;7.93;2.95;;;11.30;99.90;;;;;;4958620;28;20061;-70
2023/05/26 06:18:53;;;;;;;5.45;3.65;;;11.30;99.90;;;;;;4965123;28;20047;-67
2023/05/26 06:21:20;;;;;;;11.75;4.38;;;11.40;99.90;;;;;;4976041;28;20054;-68
2023/05/26 06:23:52;;;;;;;;;;;11.40;99.90;;;;;;4959168;28;20054;-65
2023/05/26 06:26:21;;;;;;;10.52;2.80;;;11.40;99.90;;;;;;4965362;28;20475;-68
2023/05/26 06:28:48;;;;;;;14.07;2.17;;;11.40;99.90;;;;;;4962184;28;20066;-69
2023/05/26 06:31:15;;;;;;;7.57;2.25;;;11.50;99.90;;;;;;4961749;28;20640;-63
2023/05/26 06:33:50;;;;;;;9.98;2.40;;;11.40;99.90;;;;;;4954681;28;20544;-65
2023/05/26 06:36:18;;;;;;;9.10;2.42;;;11.50;99.90;;;;;;4959973;28;20050;-65
2023/05/26 06:38:45;;;;;;;11.93;2.72;;;11.40;99.90;;;;;;4960567;28;20134;-66
2023/05/26 06:41:13;;;;;;;11.60;3.08;;;11.40;99.90;;;;;;4963752;28;20046;-63
2023/05/26 06:43:40;;;;;;;8.65;3.00;;;11.40;99.90;;;;;;4962330;28;20072;-68
2023/05/26 06:46:07;;;;;;;8.02;2.55;;;11.60;99.90;;;;;;4961533;28;20050;-65
2023/05/26 06:48:37;;;;;;;13.15;2.58;;;11.60;99.90;;;;;;4978859;28;20575;-70
2023/05/26 06:51:31;;;;;;;3.20;2.38;;;11.60;99.90;;;;;;4961317;28;20334;-60
2023/05/26 06:53:59;;;;;;;6.30;2.33;;;11.60;99.90;;;;;;4960048;28;20523;-64
2023/05/26 06:56:26;;;;;;;4.88;2.10;;;11.70;99.90;;;;;;4961529;28;20066;-63
2023/05/26 06:58:53;;;;;;;6.97;2.08;;;11.70;99.90;;;;;;4963186;28;20059;-63
2023/05/26 07:01:21;;;;;;;6.43;2.53;;;11.80;99.90;;;;;;4979707;28;20059;-61
2023/05/26 07:03:49;;;;;;;5.68;2.78;;;11.70;99.90;;;;;;4979052;28;20053;-68
2023/05/26 07:06:16;;;;;;;9.80;2.95;;;11.70;99.90;;;;;;4972410;28;20150;-64
2023/05/26 07:08:44;;;;;;;6.32;2.97;;;11.80;99.90;;;;;;4965558;28;20705;-62
2023/05/26 07:11:19;;;;;;;3.90;1.25;;;11.80;99.90;;;;;;4965578;28;20093;-66
2023/05/26 07:13:52;;;;;;;6.00;2.15;;;11.90;99.90;;;;;;4963136;28;20054;-61
2023/05/26 07:16:20;;;;;;;8.10;2.85;;;11.90;99.90;;;;;;4964731;28;20049;-62
2023/05/26 07:18:47;;;;;;;8.15;2.45;;;11.90;99.90;;;;;;4981065;28;20082;-66
2023/05/26 07:21:15;;;;;;;7.72;1.85;;;12.00;99.90;;;;;;4979412;28;20125;-67
2023/05/26 07:23:44;;;;;;;5.55;2.67;;;12.00;99.90;;;;;;4964761;28;20053;-64
2023/05/26 07:26:11;;;;;;;5.10;2.45;;;12.10;99.90;;;;;;4964159;28;20046;-67
2023/05/26 07:28:40;;;;;;;4.32;2.25;;;12.10;99.90;;;;;;4981732;28;20058;-68
2023/05/26 07:31:08;;;;;;;4.93;1.33;;;12.10;99.90;;;;;;4977414;28;20063;-61
2023/05/26 07:33:38;;;;;;;5.05;2.45;;;12.10;99.90;;;;;;4964898;28;20055;-61
2023/05/26 07:36:05;;;;;;;5.38;1.92;;;12.10;99.90;;;;;;4978470;28;20081;-66
2023/05/26 07:38:33;;;;;;;5.90;1.80;;;12.10;99.90;;;;;;4965742;28;21018;-66
2023/05/26 07:41:00;;;;;;;7.47;2.13;;;12.20;99.90;;;;;;4965712;28;20046;-62
2023/05/26 07:43:27;;;;;;;5.15;2.30;;;12.20;99.90;;;;;;4966365;28;20074;-68
2023/05/26 07:45:54;;;;;;;4.97;2.08;;;12.20;99.90;;;;;;4964814;28;20082;-66
2023/05/26 07:48:21;;;;;;;8.70;2.40;;;12.20;99.90;;;;;;4967544;28;20089;-65
2023/05/26 07:50:48;;;;;;;4.95;1.67;;;12.30;99.90;;;;;;4963406;28;20054;-66
2023/05/26 07:53:15;;;;;;;9.23;1.63;;;12.30;99.90;;;;;;4965010;28;20078;-65
2023/05/26 07:55:41;;;;;;;3.42;1.23;;;12.20;99.90;;;;;;4966950;28;20051;-62
2023/05/26 07:58:10;;;;;;;7.50;2.10;;;12.20;99.90;;;;;;4965553;28;20094;-61
2023/05/26 08:00:37;;;;;;;5.35;2.47;;;12.30;99.90;;;;;;4965593;28;20070;-65
2023/05/26 08:03:05;;;;;;;12.80;2.65;;;12.40;99.90;;;;;;4967914;28;20571;-61
2023/05/26 08:05:32;;;;;;;5.78;1.65;;;12.40;99.90;;;;;;4966847;28;20086;-68
2023/05/26 08:07:59;;;;;;;7.68;1.25;;;12.50;99.90;;;;;;4963866;28;20073;-68
2023/05/26 08:10:26;;;;;;;13.10;1.90;;;12.40;99.90;;;;;;4966459;28;20082;-64
2023/05/26 08:12:53;;;;;;;3.08;1.17;;;12.60;99.90;;;;;;4966676;28;20062;-64
2023/05/26 08:15:24;;;;;;;9.85;2.25;;;12.60;99.90;;;;;;4966137;28;20085;-62
2023/05/26 08:17:51;;;;;;;5.22;1.52;;;12.60;99.90;;;;;;4964931;28;20515;-65
2023/05/26 08:20:18;;;;;;;2.95;1.00;;;12.60;99.90;;;;;;4963352;28;20084;-70
2023/05/26 08:22:45;;;;;;;5.10;1.70;;;12.60;99.90;;;;;;4966667;28;20094;-63
2023/05/26 08:25:12;;;;;;;5.28;2.60;;;12.70;99.90;;;;;;4962373;28;20145;-62
2023/05/26 08:27:40;;;;;;;3.33;1.08;;;12.70;99.90;;;;;;4966733;28;20071;-66
2023/05/26 08:30:07;;;;;;;2.40;2.08;;;12.70;99.90;;;;;;4960686;28;20512;-66
2023/05/26 08:32:34;;;;;;;4.63;1.38;;;12.60;99.90;;;;;;4964580;28;20191;-64
2023/05/26 08:35:02;;;;;;;2.22;1.45;;;12.60;99.90;;;;;;4963740;28;20050;-75
2023/05/26 08:37:29;;;;;;;2.88;1.08;;;12.80;99.90;;;;;;4964455;28;20054;-68
2023/05/26 08:39:59;;;;;;;4.65;1.40;;;12.80;99.90;;;;;;4962999;28;20114;-69
2023/05/26 08:42:37;;;;;;;3.95;1.73;;;12.90;99.90;;;;;;4967115;28;20051;-72
2023/05/26 08:45:04;;;;;;;4.97;2.40;;;13.00;99.90;;;;;;4965652;28;20057;-66
2023/05/26 08:47:35;;;;;;;6.18;2.42;;;13.00;99.90;;;;;;4965591;28;20050;-66
2023/05/26 08:50:04;;;;;;;5.50;1.67;;;13.10;99.90;;;;;;4961192;28;20074;-66
2023/05/26 08:52:32;;;;;;;4.45;1.58;;;13.00;99.90;;;;;;4963247;28;20533;-64
2023/05/26 08:54:59;;;;;;;8.63;1.77;;;12.90;99.90;;;;;;4965121;28;20054;-62
2023/05/26 08:57:29;;;;;;;4.13;1.40;;;12.90;99.90;;;;;;4964544;28;20095;-67
2023/05/26 08:59:57;;;;;;;6.13;0.90;;;13.00;99.90;;;;;;4963115;28;20043;-62
2023/05/26 09:02:24;;;;;;;5.35;1.27;;;13.00;99.90;;;;;;4964132;28;20050;-65
2023/05/26 09:04:51;;;;;;;4.13;1.70;;;13.00;99.90;;;;;;4963506;28;20189;-63
2023/05/26 09:07:18;;;;;;;3.25;1.85;;;13.00;99.90;;;;;;4964574;28;20053;-61
2023/05/26 09:09:48;;;;;;;6.25;1.38;;;13.10;99.90;;;;;;4962351;28;20051;-62
2023/05/26 09:12:15;;;;;;;3.05;1.88;;;13.20;99.90;;;;;;4966940;28;20086;-65
2023/05/26 09:14:43;;;;;;;1.95;1.77;;;13.20;99.90;;;;;;4966109;28;20073;-62
2023/05/26 09:17:13;;;;;;;5.40;1.67;;;13.10;99.90;;;;;;4964290;28;20038;-71
2023/05/26 09:19:41;;;;;;;1.95;0.98;;;13.20;99.90;;;;;;4965011;28;20050;-63
2023/05/26 09:22:10;;;;;;;7.20;0.93;;;13.30;99.90;;;;;;4964906;28;20145;-74
2023/05/26 09:24:47;;;;;;;3.50;1.20;;;13.30;99.90;;;;;;4962984;28;20054;-64
2023/05/26 09:27:20;;;;;;;6.60;1.83;;;13.40;99.90;;;;;;4964367;28;20050;-62
2023/05/26 09:30:00;;;;;;;3.58;1.10;;;13.60;99.90;;;;;;4959843;28;20387;-68
2023/05/26 09:32:28;;;;;;;3.95;1.70;;;13.60;99.90;;;;;;4964123;28;20054;-64
2023/05/26 09:35:03;;;;;;;3.35;1.00;;;13.70;99.90;;;;;;4962025;28;20045;-65
2023/05/26 09:37:32;;;;;;;3.20;1.77;;;13.70;99.90;;;;;;4965700;28;20043;-65
2023/05/26 09:40:08;;;;;;;2.15;0.90;;;13.80;99.90;;;;;;4961742;28;20094;-65
2023/05/26 09:42:37;;;;;;;5.00;2.58;;;13.70;99.90;;;;;;4963810;28;20043;-65
2023/05/26 09:45:04;;;;;;;2.08;1.13;;;13.70;99.90;;;;;;4965358;28;20050;-64
2023/05/26 09:47:34;;;;;;;5.95;4.97;;;13.60;99.90;;;;;;4964839;28;20117;-68
2023/05/26 09:50:05;;;;;;;4.43;3.08;;;13.50;99.90;;;;;;4960126;28;20060;-72
2023/05/26 09:52:34;;;;;;;10.02;2.83;;;13.50;99.90;;;;;;4966473;28;20069;-61
2023/05/26 09:55:01;;;;;;;4.97;2.70;;;13.60;99.90;;;;;;4964050;28;20059;-70
2023/05/26 09:57:28;;;;;;;5.28;1.63;;;13.80;99.90;;;;;;4966230;28;20054;-69
2023/05/26 09:59:56;;;;;;;5.38;2.80;;;13.80;99.90;;;;;;4963576;28;20055;-63
2023/05/26 10:02:28;;;;;;;6.57;1.80;;;14.00;99.90;;;;;;4966077;28;20061;-63
2023/05/26 10:04:57;;;;;;;4.10;0.95;;;14.10;99.90;;;;;;4963947;28;20153;-69
2023/05/26 10:07:27;;;;;;;2.25;0.95;;;14.00;99.90;;;;;;4969702;28;20074;-62
2023/05/26 10:10:02;;;;;;;2.70;1.23;;;14.00;99.90;;;;;;4965455;28;20066;-66
2023/05/26 10:12:33;;;;;;;5.68;1.48;;;14.00;99.90;;;;;;4964381;28;20566;-66
2023/05/26 10:15:01;;;;;;;2.78;1.20;;;13.90;99.90;;;;;;4966003;28;20461;-65
2023/05/26 10:17:28;;;;;;;1.98;0.77;;;13.90;99.90;;;;;;4968789;28;20089;-65
2023/05/26 10:19:57;;;;;;;5.05;0.93;;;14.10;99.90;;;;;;4963077;28;20540;-73
2023/05/26 10:22:39;;;;;;;2.35;1.15;;;14.00;99.90;;;;;;4965542;28;20066;-66
2023/05/26 10:25:23;;;;;;;4.30;0.90;;;13.80;99.90;;;;;;4969956;28;20062;-67
2023/05/26 10:28:22;;;;;;;5.85;0.98;;;14.00;99.90;;;;;;4963624;28;20074;-62
2023/05/26 10:30:59;;;;;;;5.00;1.38;;;14.00;99.90;;;;;;4964086;28;20102;-68
2023/05/26 10:33:43;;;;;;;4.95;0.80;;;14.00;99.90;;;;;;4962754;28;20145;-67
2023/05/26 10:36:15;;;;;;;2.65;0.90;;;14.00;99.90;;;;;;4961165;28;20057;-68
2023/05/26 10:38:47;;;;;;;5.43;1.17;;;14.20;99.90;;;;;;4964112;28;20059;-61
2023/05/26 10:41:31;;;;;;;5.82;1.30;;;14.20;99.90;;;;;;4965318;28;21999;-68
2023/05/26 10:43:59;;;;;;;5.53;1.00;;;14.60;99.90;;;;;;4961511;28;20571;-62
2023/05/26 10:46:44;;;;;;;3.70;1.13;;;14.10;99.90;;;;;;4963382;28;20062;-68
2023/05/26 10:49:22;;;;;;;3.08;0.90;;;14.00;99.90;;;;;;4964486;28;20064;-65
2023/05/26 10:51:52;;;;;;;4.30;1.35;;;14.10;99.90;;;;;;4960164;28;20551;-69
2023/05/26 10:54:24;;;;;;;6.22;1.52;;;14.30;99.90;;;;;;4961379;28;20047;-67
2023/05/26 10:56:53;;;;;;;6.82;2.63;;;14.70;99.90;;;;;;4961910;28;20105;-64
2023/05/26 10:59:24;;;;;;;3.00;1.15;;;14.50;99.90;;;;;;4963381;28;20063;-66
2023/05/26 11:01:54;;;;;;;2.28;1.80;;;14.40;99.90;;;;;;4962234;28;20472;-70
2023/05/26 11:04:21;;;;;;;2.75;0.80;;;14.40;99.90;;;;;;4962622;28;20046;-66
2023/05/26 11:06:51;;;;;;;5.35;0.88;;;14.30;99.90;;;;;;4961071;28;20055;-66
2023/05/26 11:09:22;;;;;;;3.22;1.65;;;14.40;99.90;;;;;;4962818;28;20054;-63
2023/05/26 11:11:58;;;;;;;2.85;1.08;;;14.40;99.90;;;;;;4939710;28;20172;-75
2023/05/26 11:14:27;;;;;;;4.43;0.80;;;14.30;99.90;;;;;;4949994;28;20055;-71
2023/05/26 11:17:00;;;;;;;2.40;1.00;;;14.70;99.90;;;;;;4961651;28;20054;-65
2023/05/26 11:19:30;;;;;;;1.92;0.88;;;14.70;99.90;;;;;;4961159;28;20061;-71
2023/05/26 11:22:03;;;;;;;4.25;1.40;;;14.60;99.90;;;;;;4960359;28;20055;-67
2023/05/26 11:24:31;;;;;;;2.20;1.15;;;14.50;99.90;;;;;;4961961;28;20078;-64
2023/05/26 11:27:02;;;;;;;6.38;1.05;;;14.90;99.90;;;;;;4977108;28;20097;-63
2023/05/26 11:29:30;;;;;;;4.10;0.65;;;15.00;99.90;;;;;;4960775;28;20105;-64
2023/05/26 11:31:58;;;;;;;1.42;0.90;;;15.00;99.90;;;;;;4958403;28;20131;-63
2023/05/26 11:34:25;;;;;;;1.83;0.95;;;15.00;99.90;;;;;;4961785;28;20061;-70
2023/05/26 11:36:58;;;;;;;1.55;0.63;;;14.90;99.90;;;;;;4961911;28;20106;-67
2023/05/26 11:39:31;;;;;;;2.50;0.70;;;15.20;99.90;;;;;;4961813;28;20127;-64
2023/05/26 11:42:09;;;;;;;1.83;0.68;;;15.40;99.90;;;;;;4959300;28;20090;-65
2023/05/26 11:44:37;;;;;;;3.83;0.73;;;15.20;99.90;;;;;;4961759;28;20062;-63
2023/05/26 11:47:05;;;;;;;1.70;1.00;;;15.20;99.90;;;;;;4966077;28;20069;-69
2023/05/26 11:49:32;;;;;;;2.88;1.02;;;15.40;99.90;;;;;;4962534;28;20080;-70
2023/05/26 11:51:59;;;;;;;2.22;0.60;;;15.60;99.90;;;;;;4962817;28;20054;-65
2023/05/26 11:54:26;;;;;;;2.38;0.98;;;15.60;99.90;;;;;;4950945;28;20165;-73
2023/05/26 11:56:53;;;;;;;7.03;0.73;;;15.60;99.90;;;;;;4963910;28;20145;-70
2023/05/26 11:59:21;;;;;;;1.65;0.95;;;15.70;99.90;;;;;;4966876;28;20143;-63
2023/05/26 12:01:48;;;;;;;2.45;1.05;;;15.70;99.90;;;;;;4964453;28;20078;-70
2023/05/26 12:04:26;;;;;;;2.70;0.88;;;15.60;99.90;;;;;;4965866;28;20058;-61
2023/05/26 12:06:54;;;;;;;2.30;0.80;;;15.40;99.90;;;;;;4965834;28;20106;-61
2023/05/26 12:09:22;;;;;;;4.53;1.30;;;15.40;99.90;;;;;;4967469;28;20061;-64
2023/05/26 12:11:53;;;;;;;1.45;0.77;;;15.30;99.90;;;;;;4965960;28;20101;-65
2023/05/26 12:14:23;;;;;;;4.55;1.40;;;15.30;99.90;;;;;;4966186;28;20055;-61
2023/05/26 12:16:52;;;;;;;2.13;0.90;;;15.10;99.90;;;;;;4965790;28;20077;-62
2023/05/26 12:19:23;;;;;;;4.00;1.10;;;15.20;99.90;;;;;;4964615;28;20047;-63
2023/05/26 12:21:53;;;;;;;1.63;0.90;;;15.20;99.90;;;;;;4965393;28;20397;-64
2023/05/26 12:24:34;;;;;;;3.13;0.85;;;15.00;99.90;;;;;;4963213;28;20045;-62
2023/05/26 12:27:11;;;;;;;2.50;1.27;;;15.00;99.90;;;;;;4964974;28;20053;-64
2023/05/26 12:29:43;;;;;;;3.78;0.95;;;15.30;99.90;;;;;;4963677;28;21066;-67
2023/05/26 12:32:10;;;;;;;3.70;0.98;;;15.20;99.90;;;;;;4963811;28;20588;-62
2023/05/26 12:34:40;;;;;;;1.73;0.70;;;15.30;99.90;;;;;;4961158;28;20055;-62
2023/05/26 12:37:07;;;;;;;10.38;1.95;;;15.30;99.90;;;;;;4964626;28;20105;-65
2023/05/26 12:39:35;;;;;;;1.55;1.27;;;15.30;99.90;;;;;;4963121;28;20038;-62
2023/05/26 12:42:02;;;;;;;1.10;0.70;;;15.20;99.90;;;;;;4965266;28;20520;-64
2023/05/26 12:44:29;;;;;;;3.58;0.80;;;15.40;99.90;;;;;;4966401;28;20062;-73
2023/05/26 12:46:56;;;;;;;2.33;0.85;;;15.50;99.90;;;;;;4967249;28;20707;-66
2023/05/26 12:49:23;;;;;;;1.83;0.77;;;15.70;99.90;;;;;;4964681;28;20421;-70
2023/05/26 12:51:50;;;;;;;1.23;0.55;;;16.00;99.90;;;;;;4964146;28;20121;-63
2023/05/26 12:54:17;;;;;;;3.05;1.02;;;15.90;99.90;;;;;;4967572;28;20054;-69
2023/05/26 12:56:44;;;;;;;4.72;1.90;;;15.60;99.90;;;;;;4964750;28;20209;-62